ADDS METAR Data INFO
IDs: Format: Raw Decoded Include TAF

Data at: 1536 UTC 25 Feb 2018

KCWF 251445Z 07009G15KT 7SM OVC004 15/14 A3004 RMK RAE40
KCWF 251355Z 09016G20KT 5SM -RA OVC006 A3004
KCWF 251255Z 08008KT 5SM -RA OVC006 A3003 RMK RAB15
KCWF 251200Z 05009KT 10SM SCT004 OVC039 A3003
KCWF 251135Z 02008G15KT 4SM BKN004 BKN016 OVC034 A3003 RMK AO2 P0020 PWINO
KCWF 251115Z 01009KT 10SM SCT006 OVC014 A3003 RMK AO2 P0002 PWINO
KCWF 251055Z 01006KT 10SM OVC012 A3001 RMK AO2 PWINO
KCWF 251035Z 01011KT 10SM OVC012 A3000 RMK AO2 LTG DSNT W AND NW PWINO
KCWF 251015Z 35012G17KT 7SM OVC008 A2998 RMK AO2 LTG DSNT W AND NW PWINO
KCWF 250955Z 21005G09KT 7SM OVC008 A2997 RMK AO2 PWINO
KCWF 250935Z 22009G14KT 7SM OVC008 A2997 RMK AO2 LTG DSNT W PWINO
KCWF 250915Z 19005KT 7SM OVC008 A2996 RMK AO2 PWINO
KCWF 250855Z 19005KT 7SM OVC008 A2996 RMK AO2 LTG DSNT N PWINO
KCWF 250835Z 20007KT 7SM OVC008 A2996 RMK AO2 LTG DSNT NW PWINO
KCWF 250815Z 19007KT 7SM OVC008 A2996 RMK AO2 PWINO
KCWF 250755Z 19005KT 7SM OVC008 A2997 RMK AO2 PWINO
KCWF 250735Z 18006KT 7SM OVC008 A2997 RMK AO2 PWINO
KCWF 250715Z 17006G15KT 7SM OVC008 A2997 RMK AO2 LTG DSNT N PWINO
KCWF 250655Z 18006KT 7SM OVC008 A2997 RMK AO2 LTG DSNT N AND NW PWINO
KCWF 250635Z 19006KT 160V220 7SM OVC008 A2998 RMK AO2 PWINO
KCWF 250615Z 17008KT 7SM OVC008 A2997 RMK AO2 PWINO
KCWF 250555Z 17006KT 7SM OVC008 A2998 RMK AO2 PWINO
KCWF 250535Z 17004KT 7SM OVC008 A3000 RMK AO2 PWINO
KCWF 250515Z 18005KT 7SM OVC008 A2999 RMK AO2 PWINO
KCWF 250455Z 17006KT 7SM OVC008 A2998 RMK AO2 PWINO
KCWF 250435Z 17006KT 7SM OVC010 A2998 RMK AO2 PWINO
KCWF 250415Z 17006KT 7SM OVC010 A2998 RMK AO2 PWINO
KCWF 250355Z 17005KT 7SM OVC010 23/21 A2998 RMK LAST
KCWF 250255Z 18007KT 7SM OVC010 23/21 A2997
KCWF 250155Z 17007G14KT 7SM OVC010 23/21 A2995
KCWF 250055Z 17006KT 10SM OVC014 23/21 A2995
KCWF 242355Z 18006KT 7SM OVC016 24/21 A2994
KCWF 242255Z 19011G22KT 7SM OVC018 25/21 A2993
KCWF 242155Z 19016G21KT 7SM BKN018 OVC026 26/21 A2994
KCWF 242055Z 19014G24KT 7SM BKN020 26/20 A2993
KCWF 241955Z 18019G24KT 7SM BKN020 26/20 A2995
KCWF 241850Z 18019G25KT 7SM BKN024 26/20 A2997
KCWF 241745Z 19019G26KT 7SM BKN020 OVC044 26/20 A3002
KCWF 241650Z 19016G24KT 7SM BKN018 26/20 A3002
KCWF 241550Z 18012G20KT 10SM BKN012 OVC039 24/21 A3004
KCWF 241455Z 17010G16KT 10SM BKN012 24/21 A3004
KCWF 241355Z 17008KT 10SM SCT008 BKN020 23/21 A3005
KCWF 241255Z 18005KT 10SM OVC008 22/21 A3004
KCWF 241200Z 18006KT 10SM OVC008 22/21 A3011
KCWF 241135Z 18008KT 10SM OVC008 A3002 RMK AO2 PWINO
KCWF 241115Z 18008KT 10SM OVC008 A3002 RMK AO2 PWINO
KCWF 241055Z 18009G14KT 10SM OVC008 A3002 RMK AO2 PWINO
KCWF 241035Z 17009KT 10SM OVC008 A3002 RMK AO2 PWINO
KCWF 241015Z 18008KT 10SM OVC008 A3002 RMK AO2 PWINO
KCWF 240955Z 17007KT 10SM BKN008 BKN013 OVC022 A3003 RMK AO2 PWINO
KCWF 240935Z 17008KT 10SM SCT008 SCT013 OVC020 A3003 RMK AO2 PWINO
KCWF 240915Z 16007KT 10SM OVC008 A3003 RMK AO2 PWINO
KCWF 240855Z 17005KT 10SM OVC008 A3004 RMK AO2 PWINO
KCWF 240835Z 16006KT 10SM OVC008 A3005 RMK AO2 PWINO
KCWF 240815Z 17007G14KT 10SM OVC008 A3005 RMK AO2 PWINO
KCWF 240755Z 17008KT 10SM OVC008 A3005 RMK AO2 PWINO
KCWF 240735Z 17010G15KT 10SM OVC008 A3005 RMK AO2 PWINO
KCWF 240715Z 16008G17KT 10SM OVC008 A3006 RMK AO2 PWINO
KCWF 240655Z 17009KT 10SM OVC008 A3007 RMK AO2 PWINO
KCWF 240635Z 16007G14KT 10SM OVC008 A3007 RMK AO2 PWINO
KCWF 240615Z 16008KT 10SM OVC008 A3007 RMK AO2 PWINO
KCWF 240555Z 16009KT 10SM OVC008 A3007 RMK AO2 PWINO
KCWF 240535Z 16007KT 10SM OVC010 A3008 RMK AO2 PWINO
KCWF 240515Z 16009KT 10SM OVC010 A3009 RMK AO2 PWINO
KCWF 240455Z 16007KT 10SM BKN010 OVC016 A3009 RMK AO2 PWINO
KCWF 240435Z 16007KT 10SM BKN010 OVC015 A3010 RMK AO2 PWINO
KCWF 240415Z 16006KT 10SM OVC010 A3010 RMK AO2 PWINO
KCWF 240345Z 16006KT 10SM OVC010 23/21 A3011 RMK LAST